Time;durP1;ratioP1;P1;durP2;ratioP2;P2;SDS_P1;SDS_P2;PMS_P1;PMS_P2;Temp;Humidity;BMP_temperature;BMP_pressure;BME280_temperature;BME280_humidity;BME280_pressure;Samples;Min_cycle;Max_cycle;Signal;HPM_P1;HPM_P2
2022/12/07 00:02:14;;;;;;;;;;;3.30;99.90;;;;;;5083915;28;19928;-65
2022/12/07 00:04:40;;;;;;;;;;;3.40;99.90;;;;;;5091782;28;19973;-65
2022/12/07 00:07:05;;;;;;;;;;;3.30;99.90;;;;;;5092370;28;20003;-65
2022/12/07 00:09:31;;;;;;;;;;;3.30;99.90;;;;;;5091616;28;20340;-64
2022/12/07 00:11:56;;;;;;;;;;;3.40;99.90;;;;;;5076896;28;19950;-65
2022/12/07 00:14:22;;;;;;;;;;;3.40;99.90;;;;;;5095543;28;19959;-65
2022/12/07 00:16:48;;;;;;;;;;;3.50;99.90;;;;;;5092047;28;20014;-64
2022/12/07 00:19:14;;;;;;;;;;;3.50;99.90;;;;;;5114356;28;20328;-64
2022/12/07 00:21:40;;;;;;;;;;;3.50;99.90;;;;;;5076551;28;19923;-65
2022/12/07 00:24:05;;;;;;;;;;;3.50;99.90;;;;;;5096311;28;19973;-65
2022/12/07 00:26:38;;;;;;;;;;;3.50;99.90;;;;;;5089411;28;19982;-65
2022/12/07 00:29:05;;;;;;;;;;;3.40;99.90;;;;;;5088526;28;20283;-65
2022/12/07 00:31:33;;;;;;;;;;;3.40;99.90;;;;;;5091203;28;20011;-64
2022/12/07 00:33:58;;;;;;;;;;;3.30;99.90;;;;;;5122448;27;20018;-65
2022/12/07 00:36:24;;;;;;;;;;;3.40;99.90;;;;;;5084879;28;20450;-65
2022/12/07 00:38:50;;;;;;;;;;;3.30;99.90;;;;;;5118569;27;20324;-65
2022/12/07 00:41:17;;;;;;;;;;;3.30;99.90;;;;;;5088298;28;19920;-65
2022/12/07 00:43:43;;;;;;;;;;;3.30;99.90;;;;;;5083374;28;20675;-65
2022/12/07 00:46:09;;;;;;;;;;;3.40;99.90;;;;;;5124280;27;19972;-65
2022/12/07 00:48:34;;;;;;;;;;;3.30;99.90;;;;;;5096274;28;19960;-65
2022/12/07 00:51:00;;;;;;;;;;;3.30;99.90;;;;;;5086793;28;19928;-65
2022/12/07 00:53:26;;;;;;;;;;;3.30;99.90;;;;;;5108163;28;19928;-65
2022/12/07 00:55:52;;;;;;;;;;;3.20;99.90;;;;;;5087574;28;19935;-64
2022/12/07 00:58:18;;;;;;;;;;;3.30;99.90;;;;;;5094494;28;19921;-65
2022/12/07 01:00:43;;;;;;;;;;;3.20;99.90;;;;;;5090620;28;19978;-65
2022/12/07 01:03:10;;;;;;;;;;;3.20;99.90;;;;;;5073502;28;19928;-64
2022/12/07 01:05:35;;;;;;;;;;;3.20;99.90;;;;;;5115659;28;19919;-65
2022/12/07 01:08:01;;;;;;;;;;;3.30;99.90;;;;;;5114083;27;19969;-66
2022/12/07 01:10:27;;;;;;;;;;;3.30;99.90;;;;;;5078339;28;19981;-65
2022/12/07 01:12:52;;;;;;;;;;;3.30;99.90;;;;;;5068844;28;19990;-65
2022/12/07 01:15:18;;;;;;;;;;;3.20;99.90;;;;;;5103739;28;20375;-64
2022/12/07 01:17:44;;;;;;;;;;;3.20;99.90;;;;;;5076763;28;19971;-65
2022/12/07 01:20:10;;;;;;;;;;;3.20;99.90;;;;;;5083990;28;19924;-65
2022/12/07 01:22:38;;;;;;;;;;;3.10;99.90;;;;;;5075048;28;19923;-65
2022/12/07 01:25:05;;;;;;;;;;;3.10;99.90;;;;;;5111685;27;20373;-65
2022/12/07 01:27:30;;;;;;;;;;;3.20;99.90;;;;;;5082595;28;20359;-65
2022/12/07 01:29:56;;;;;;;;;;;3.10;99.90;;;;;;5082004;28;19927;-65
2022/12/07 01:32:21;;;;;;;;;;;3.20;99.90;;;;;;5068019;28;20100;-65
2022/12/07 01:34:50;;;;;;;;;;;3.20;99.90;;;;;;5106597;27;19973;-64
2022/12/07 01:37:15;;;;;;;;;;;3.20;99.90;;;;;;5080914;28;20497;-65
2022/12/07 01:39:41;;;;;;;;;;;3.20;99.90;;;;;;5072532;28;19928;-65
2022/12/07 01:42:10;;;;;;;;;;;3.30;99.90;;;;;;5068670;28;19920;-66
2022/12/07 01:44:55;;;;;;;;;;;3.20;99.90;;;;;;5113155;27;19924;-65
2022/12/07 01:47:20;;;;;;;;;;;3.10;99.90;;;;;;5075711;28;19924;-66
2022/12/07 01:49:47;;;;;;;;;;;3.10;99.90;;;;;;5068746;28;19986;-66
2022/12/07 01:52:33;;;;;;;;;;;3.00;99.90;;;;;;5077134;28;19919;-65
2022/12/07 01:55:00;;;;;;;;;;;2.90;99.90;;;;;;5090475;28;19920;-65
2022/12/07 01:57:25;;;;;;;;;;;2.80;99.90;;;;;;5078030;28;20010;-65
2022/12/07 01:59:51;;;;;;;;;;;2.70;99.90;;;;;;5115867;27;20011;-64
2022/12/07 02:02:40;;;;;;;;;;;2.80;99.90;;;;;;5086248;28;19927;-65
2022/12/07 02:05:06;;;;;;;;;;;2.90;99.90;;;;;;5076987;28;21519;-65
2022/12/07 02:07:33;;;;;;;;;;;2.90;99.90;;;;;;5094692;28;19923;-65
2022/12/07 02:10:11;;;;;;;;;;;2.90;99.90;;;;;;5097591;28;20002;-64
2022/12/07 02:12:37;;;;;;;;;;;2.90;99.90;;;;;;5094979;28;20594;-65
2022/12/07 02:15:02;;;;;;;;;;;2.90;99.90;;;;;;5094836;28;19970;-65
2022/12/07 02:17:31;;;;;;;;;;;2.90;99.90;;;;;;5100644;28;19942;-65
2022/12/07 02:20:16;;;;;;;;;;;2.80;99.90;;;;;;5087804;28;19928;-64
2022/12/07 02:23:00;;;;;;;;;;;2.70;99.90;;;;;;5092932;28;19924;-64
2022/12/07 02:25:28;;;;;;;;;;;2.60;99.90;;;;;;5093901;28;19920;-64
2022/12/07 02:28:05;;;;;;;;;;;2.70;99.90;;;;;;5091048;28;19920;-65
2022/12/07 02:30:31;;;;;;;;;;;2.70;99.90;;;;;;5131585;27;19928;-65
2022/12/07 02:33:03;;;;;;;;;;;2.60;99.90;;;;;;5092496;28;20010;-65
2022/12/07 02:35:40;;;;;;;;;;;2.60;99.90;;;;;;5125044;27;19928;-65
2022/12/07 02:38:15;;;;;;;;;;;2.70;99.90;;;;;;5089521;28;19927;-65
2022/12/07 02:40:48;;;;;;;;;;;2.80;99.90;;;;;;5132230;27;20018;-64
2022/12/07 02:43:14;;;;;;;;;;;2.80;99.90;;;;;;5124199;27;19919;-65
2022/12/07 02:45:41;;;;;;;;;;;2.70;99.90;;;;;;5083280;28;20412;-65
2022/12/07 02:48:08;;;;;;;;;;;2.70;99.90;;;;;;5092546;28;20383;-65
2022/12/07 02:50:33;;;;;;;;;;;2.70;99.90;;;;;;5080399;28;19935;-65
2022/12/07 02:52:59;;;;;;;;;;;2.60;99.90;;;;;;5068057;28;19928;-65
2022/12/07 02:55:29;;;;;;;;;;;2.70;99.90;;;;;;5096941;28;19919;-65
2022/12/07 02:57:58;;;;;;;;;;;2.70;99.90;;;;;;5085045;28;21243;-64
2022/12/07 03:00:23;;;;;;;;;;;2.70;99.90;;;;;;5114942;27;19924;-64
2022/12/07 03:02:55;;;;;;;;;;;2.90;99.90;;;;;;5084861;28;20278;-63
2022/12/07 03:05:21;;;;;;;;;;;3.10;99.90;;;;;;5097663;28;20019;-66
2022/12/07 03:07:51;;;;;;;;;;;3.20;99.90;;;;;;5119976;27;19931;-64
2022/12/07 03:10:21;;;;;;;;;;;3.40;99.90;;;;;;5091897;28;19928;-64
2022/12/07 03:12:46;;;;;;;;;;;3.60;99.90;;;;;;5095598;28;19926;-64
2022/12/07 03:15:14;;;;;;;;;;;3.80;99.90;;;;;;5091888;28;19920;-64
2022/12/07 03:17:42;;;;;;;;;;;3.80;99.90;;;;;;5092110;28;19923;-65
2022/12/07 03:20:09;;;;;;;;;;;3.80;99.90;;;;;;5080771;28;19921;-65
2022/12/07 03:22:35;;;;;;;;;;;3.90;99.90;;;;;;5068858;28;19924;-64
2022/12/07 03:25:04;;;;;;;;;;;3.90;99.90;;;;;;5086365;28;20423;-65
2022/12/07 03:27:35;;;;;;;;;;;3.90;99.90;;;;;;5126629;27;19975;-66
2022/12/07 03:30:06;;;;;;;;;;;4.00;99.90;;;;;;5128708;27;20469;-65
2022/12/07 03:32:52;;;;;;;;;;;4.00;99.90;;;;;;5096066;28;19985;-65
2022/12/07 03:35:19;;;;;;;;;;;4.00;99.90;;;;;;5097049;28;19938;-66
2022/12/07 03:37:51;;;;;;;;;;;3.80;99.90;;;;;;5079213;28;19924;-65
2022/12/07 03:40:26;;;;;;;;;;;3.70;99.90;;;;;;5130377;27;19943;-66
2022/12/07 03:42:52;;;;;;;;;;;3.70;99.90;;;;;;5088700;28;20201;-66
2022/12/07 03:45:18;;;;;;;;;;;3.50;99.90;;;;;;5100197;28;20162;-65
2022/12/07 03:47:43;;;;;;;;;;;3.40;99.90;;;;;;5090883;28;19920;-64
2022/12/07 03:50:15;;;;;;;;;;;3.30;99.90;;;;;;5097081;28;19932;-65
2022/12/07 03:52:43;;;;;;;;;;;3.20;99.90;;;;;;5095128;28;19923;-65
2022/12/07 03:55:14;;;;;;;;;;;3.20;99.90;;;;;;5089977;28;19982;-65
2022/12/07 03:57:40;;;;;;;;;;;3.10;99.90;;;;;;5115801;27;19924;-65
2022/12/07 04:00:07;;;;;;;;;;;3.20;99.90;;;;;;5095954;28;19928;-64
2022/12/07 04:02:33;;;;;;;;;;;3.30;99.90;;;;;;5076518;28;19939;-66
2022/12/07 04:04:58;;;;;;;;;;;3.30;99.90;;;;;;5100714;28;19924;-66
2022/12/07 04:07:24;;;;;;;;;;;3.30;99.90;;;;;;5094131;28;20255;-66
2022/12/07 04:09:49;;;;;;;;;;;3.10;99.90;;;;;;5096301;28;20031;-66
2022/12/07 04:12:15;;;;;;;;;;;3.10;99.90;;;;;;5083090;28;19973;-66
2022/12/07 04:14:40;;;;;;;;;;;3.00;99.90;;;;;;5112242;28;20671;-66
2022/12/07 04:17:06;;;;;;;;;;;3.00;99.90;;;;;;5073414;28;19919;-65
2022/12/07 04:19:33;;;;;;;;;;;2.80;99.90;;;;;;5094416;28;20098;-65
2022/12/07 04:21:59;;;;;;;;;;;2.80;99.90;;;;;;5092098;28;19920;-65
2022/12/07 04:24:25;;;;;;;;;;;2.70;99.90;;;;;;5095338;28;19927;-65
2022/12/07 04:26:50;;;;;;;;;;;2.70;99.90;;;;;;5084348;28;19928;-65
2022/12/07 04:29:16;;;;;;;;;;;2.80;99.90;;;;;;5074655;28;20051;-65
2022/12/07 04:31:42;;;;;;;;;;;2.70;99.90;;;;;;5086913;28;20381;-65
2022/12/07 04:34:08;;;;;;;;;;;2.80;99.90;;;;;;5097484;28;20014;-65
2022/12/07 04:36:33;;;;;;;;;;;2.80;99.90;;;;;;5096929;28;20328;-65
2022/12/07 04:38:59;;;;;;;;;;;2.60;99.90;;;;;;5092627;28;21548;-65
2022/12/07 04:41:27;;;;;;;;;;;2.60;99.90;;;;;;5093790;28;20156;-65
2022/12/07 04:43:54;;;;;;;;;;;2.60;99.90;;;;;;5094290;28;19928;-65
2022/12/07 04:46:20;;;;;;;;;;;2.60;99.90;;;;;;5091882;28;19928;-65
2022/12/07 04:48:45;;;;;;;;;;;2.60;99.90;;;;;;5092110;28;20021;-65
2022/12/07 04:51:11;;;;;;;;;;;2.60;99.90;;;;;;5097737;28;19979;-65
2022/12/07 04:53:36;;;;;;;;;;;2.50;99.90;;;;;;5100659;28;20421;-66
2022/12/07 04:56:02;;;;;;;;;;;2.50;99.90;;;;;;5103739;28;19920;-65
2022/12/07 04:58:27;;;;;;;;;;;2.50;99.90;;;;;;5098068;28;19959;-65
2022/12/07 05:00:54;;;;;;;;;;;2.50;99.90;;;;;;5087773;28;19927;-65
2022/12/07 05:03:19;;;;;;;;;;;2.40;99.90;;;;;;5087296;28;19928;-66
2022/12/07 05:05:45;;;;;;;;;;;2.50;99.90;;;;;;5096381;28;19926;-65
2022/12/07 05:08:10;;;;;;;;;;;2.60;99.90;;;;;;5077136;28;20400;-65
2022/12/07 05:10:36;;;;;;;;;;;2.50;99.90;;;;;;5083400;28;19924;-66
2022/12/07 05:13:01;;;;;;;;;;;2.50;99.90;;;;;;5093799;28;20262;-66
2022/12/07 05:15:26;;;;;;;;;;;2.60;99.90;;;;;;5093681;28;19931;-65
2022/12/07 05:17:52;;;;;;;;;;;2.50;99.90;;;;;;5093758;28;20435;-65
2022/12/07 05:20:17;;;;;;;;;;;2.40;99.90;;;;;;5096350;28;19927;-65
2022/12/07 05:22:43;;;;;;;;;;;2.50;99.90;;;;;;5092005;28;19931;-65
2022/12/07 05:25:08;;;;;;;;;;;2.50;99.90;;;;;;5096574;28;20429;-65
2022/12/07 05:27:34;;;;;;;;;;;2.40;99.90;;;;;;5098585;28;19960;-65
2022/12/07 05:30:00;;;;;;;;;;;2.40;99.90;;;;;;5095062;28;20385;-65
2022/12/07 05:32:25;;;;;;;;;;;2.30;99.90;;;;;;5088534;28;19920;-66
2022/12/07 05:34:50;;;;;;;;;;;2.30;99.90;;;;;;5098379;28;20433;-65
2022/12/07 05:37:16;;;;;;;;;;;2.30;99.90;;;;;;5091957;28;20098;-65
2022/12/07 05:39:42;;;;;;;;;;;2.20;99.90;;;;;;5094362;28;20085;-64
2022/12/07 05:42:12;;;;;;;;;;;2.20;99.90;;;;;;5094276;28;19920;-64
2022/12/07 05:44:41;;;;;;;;;;;2.30;99.90;;;;;;5083797;28;20328;-65
2022/12/07 05:47:07;;;;;;;;;;;2.20;99.90;;;;;;5088388;28;19924;-65
2022/12/07 05:49:32;;;;;;;;;;;2.30;99.90;;;;;;5086586;28;19920;-65
2022/12/07 05:51:58;;;;;;;;;;;2.20;99.90;;;;;;5087805;28;19928;-65
2022/12/07 05:54:23;;;;;;;;;;;2.30;99.90;;;;;;5091977;28;19920;-66
2022/12/07 05:56:49;;;;;;;;;;;2.30;99.90;;;;;;5086858;28;19927;-65
2022/12/07 05:59:24;;;;;;;;;;;2.30;99.90;;;;;;5092735;28;19924;-65
2022/12/07 06:01:57;;;;;;;;;;;2.30;99.90;;;;;;5078550;28;19920;-65
2022/12/07 06:04:23;;;;;;;;;;;2.30;99.90;;;;;;5083106;28;19920;-65
2022/12/07 06:06:48;;;;;;;;;;;2.40;99.90;;;;;;5100292;28;19920;-65
2022/12/07 06:09:14;;;;;;;;;;;2.40;99.90;;;;;;5106640;28;20397;-65
2022/12/07 06:14:24;;;;;;;;;;;2.60;99.90;;;;;;5067604;28;19927;-65
2022/12/07 06:16:50;;;;;;;;;;;2.70;99.90;;;;;;5096275;28;20294;-64
2022/12/07 06:19:16;;;;;;;;;;;2.70;99.90;;;;;;5109106;28;20260;-65
2022/12/07 06:21:42;;;;;;;;;;;2.70;99.90;;;;;;5089423;28;19924;-65
2022/12/07 06:24:08;;;;;;;;;;;2.80;99.90;;;;;;5088831;28;20434;-64
2022/12/07 06:26:34;;;;;;;;;;;2.90;99.90;;;;;;5106978;28;20160;-64
2022/12/07 06:28:59;;;;;;;;;;;3.00;99.90;;;;;;5083386;28;20434;-64
2022/12/07 06:31:25;;;;;;;;;;;3.00;99.90;;;;;;5098275;28;20375;-64
2022/12/07 06:33:50;;;;;;;;;;;3.10;99.90;;;;;;5059691;28;19935;-64
2022/12/07 06:36:16;;;;;;;;;;;3.20;99.90;;;;;;5074585;28;20385;-64
2022/12/07 06:38:41;;;;;;;;;;;3.20;99.90;;;;;;5072497;28;20128;-65
2022/12/07 06:41:07;;;;;;;;;;;3.30;99.90;;;;;;5073373;28;20027;-65
2022/12/07 06:43:32;;;;;;;;;;;3.30;99.90;;;;;;5106408;27;19927;-66
2022/12/07 06:45:58;;;;;;;;;;;3.30;99.90;;;;;;5072232;28;19919;-65
2022/12/07 06:48:23;;;;;;;;;;;3.30;99.90;;;;;;5074699;28;19923;-66
2022/12/07 06:50:49;;;;;;;;;;;3.40;99.90;;;;;;5063464;28;20294;-66
2022/12/07 06:53:14;;;;;;;;;;;3.40;99.90;;;;;;5100181;27;20061;-66
2022/12/07 06:55:40;;;;;;;;;;;3.40;99.90;;;;;;5057627;28;20405;-66
2022/12/07 06:58:05;;;;;;;;;;;3.30;99.90;;;;;;5077194;28;19926;-66
2022/12/07 07:00:31;;;;;;;;;;;3.20;99.90;;;;;;5119931;27;20464;-66
2022/12/07 07:02:56;;;;;;;;;;;3.10;99.90;;;;;;5130116;27;19920;-66
2022/12/07 07:05:22;;;;;;;;;;;3.10;99.90;;;;;;5092056;28;19931;-65
2022/12/07 07:07:51;;;;;;;;;;;3.00;99.90;;;;;;5096340;28;20053;-65
2022/12/07 07:10:16;;;;;;;;;;;3.00;99.90;;;;;;5116757;27;19924;-66
2022/12/07 07:12:42;;;;;;;;;;;2.90;99.90;;;;;;5076599;28;19927;-66
2022/12/07 07:15:08;;;;;;;;;;;2.90;99.90;;;;;;5073409;28;19924;-66
2022/12/07 07:17:33;;;;;;;;;;;2.90;99.90;;;;;;5084888;28;20061;-66
2022/12/07 07:19:59;;;;;;;;;;;2.90;99.90;;;;;;5074589;28;19920;-65
2022/12/07 07:22:24;;;;;;;;;;;3.00;99.90;;;;;;5071825;28;20011;-65
2022/12/07 07:24:49;;;;;;;;;;;2.90;99.90;;;;;;5083675;28;19998;-66
2022/12/07 07:27:15;;;;;;;;;;;2.90;99.90;;;;;;5080131;28;19921;-66
2022/12/07 07:29:40;;;;;;;;;;;2.80;99.90;;;;;;5073047;28;19966;-66
2022/12/07 07:32:07;;;;;;;;;;;2.80;99.90;;;;;;5088805;28;19924;-65
2022/12/07 07:34:33;;;;;;;;;;;2.70;99.90;;;;;;5091001;28;19920;-65
2022/12/07 07:36:58;;;;;;;;;;;2.60;99.90;;;;;;5082997;28;19987;-64
2022/12/07 07:39:24;;;;;;;;;;;2.60;99.90;;;;;;5076348;28;19920;-65
2022/12/07 07:41:49;;;;;;;;;;;2.60;99.90;;;;;;5086189;28;19932;-64
2022/12/07 07:44:15;;;;;;;;;;;2.80;99.90;;;;;;5089804;28;19926;-65
2022/12/07 07:46:40;;;;;;;;;;;2.80;99.90;;;;;;5084276;28;19924;-65
2022/12/07 07:49:06;;;;;;;;;;;2.70;99.90;;;;;;5081245;28;20242;-65
2022/12/07 07:51:31;;;;;;;;;;;2.70;99.90;;;;;;5086688;28;20391;-65
2022/12/07 07:53:56;;;;;;;;;;;2.70;99.90;;;;;;5096824;28;20102;-65
2022/12/07 07:56:22;;;;;;;;;;;2.80;99.90;;;;;;5089776;28;19924;-65
2022/12/07 07:58:51;;;;;;;;;;;2.80;99.90;;;;;;5086619;28;19920;-65
2022/12/07 08:01:16;;;;;;;;;;;2.80;99.90;;;;;;5087539;28;19931;-65
2022/12/07 08:03:42;;;;;;;;;;;2.90;99.90;;;;;;5094116;28;19924;-65
2022/12/07 08:06:07;;;;;;;;;;;3.00;99.90;;;;;;5083240;28;19927;-66
2022/12/07 08:08:33;;;;;;;;;;;3.00;99.90;;;;;;5085396;28;19924;-65
2022/12/07 08:11:01;;;;;;;;;;;3.00;99.90;;;;;;5083711;28;19924;-65
2022/12/07 08:13:27;;;;;;;;;;;2.90;99.90;;;;;;5081961;28;19955;-65
2022/12/07 08:15:53;;;;;;;;;;;2.80;99.90;;;;;;5081684;28;19944;-65
2022/12/07 08:18:18;;;;;;;;;;;2.70;99.90;;;;;;5073812;28;19923;-65
2022/12/07 08:20:44;;;;;;;;;;;2.50;99.90;;;;;;5081019;28;20073;-65
2022/12/07 08:23:10;;;;;;;;;;;2.60;99.90;;;;;;5085432;28;20376;-65
2022/12/07 08:25:35;;;;;;;;;;;2.50;99.90;;;;;;5092068;28;19928;-65
2022/12/07 08:28:01;;;;;;;;;;;2.40;99.90;;;;;;5088619;28;19923;-66
2022/12/07 08:30:27;;;;;;;;;;;2.30;99.90;;;;;;5089693;28;19935;-65
2022/12/07 08:32:53;;;;;;;;;;;2.30;99.90;;;;;;5088232;28;19924;-65
2022/12/07 08:35:18;;;;;;;;;;;2.40;99.90;;;;;;5089891;28;19927;-65
2022/12/07 08:37:44;;;;;;;;;;;2.30;99.90;;;;;;5094332;28;20446;-65
2022/12/07 08:40:10;;;;;;;;;;;2.30;99.90;;;;;;5094980;28;20016;-66
2022/12/07 08:42:39;;;;;;;;;;;2.30;99.90;;;;;;5089016;28;20302;-65
2022/12/07 08:45:06;;;;;;;;;;;2.40;99.90;;;;;;5092716;28;19924;-65
2022/12/07 08:47:32;;;;;;;;;;;2.50;99.90;;;;;;5082218;28;19931;-65
2022/12/07 08:50:03;;;;;;;;;;;2.70;99.90;;;;;;5084351;28;19920;-65
2022/12/07 08:52:31;;;;;;;;;;;2.60;99.90;;;;;;5120267;27;20026;-65
2022/12/07 08:54:58;;;;;;;;;;;2.80;99.90;;;;;;5093964;28;20274;-65
2022/12/07 08:57:24;;;;;;;;;;;2.80;99.90;;;;;;5095564;28;19920;-65
2022/12/07 08:59:49;;;;;;;;;;;2.80;99.90;;;;;;5093307;28;21386;-66
2022/12/07 09:02:15;;;;;;;;;;;2.90;99.90;;;;;;5085112;28;19928;-65
2022/12/07 09:04:40;;;;;;;;;;;2.90;99.90;;;;;;5102259;28;19923;-66
2022/12/07 09:07:06;;;;;;;;;;;2.90;99.90;;;;;;5090871;28;19921;-65
2022/12/07 09:09:31;;;;;;;;;;;3.00;99.90;;;;;;5134661;27;20102;-65
2022/12/07 09:11:57;;;;;;;;;;;3.10;99.90;;;;;;5092121;28;20079;-65
2022/12/07 09:14:23;;;;;;;;;;;3.10;99.90;;;;;;5100705;28;19988;-65
2022/12/07 09:16:48;;;;;;;;;;;3.20;99.90;;;;;;5090016;28;20432;-65
2022/12/07 09:19:13;;;;;;;;;;;3.20;99.90;;;;;;5099317;28;19986;-65
2022/12/07 09:21:39;;;;;;;;;;;3.10;99.90;;;;;;5092934;28;19928;-65
2022/12/07 09:24:05;;;;;;;;;;;3.20;99.90;;;;;;5095802;28;19919;-65
2022/12/07 09:26:30;;;;;;;;;;;3.30;99.90;;;;;;5094653;28;19930;-66
2022/12/07 09:28:56;;;;;;;;;;;3.30;99.90;;;;;;5088342;28;19927;-66
2022/12/07 09:31:21;;;;;;;;;;;3.40;99.90;;;;;;5085511;28;19928;-66
2022/12/07 09:33:52;;;;;;;;;;;3.60;99.90;;;;;;5092605;28;19931;-66
2022/12/07 09:36:17;;;;;;;;;;;3.60;99.90;;;;;;5102587;28;19920;-66
2022/12/07 09:38:43;;;;;;;;;;;3.70;99.90;;;;;;5093102;28;19927;-65
2022/12/07 09:41:08;;;;;;;;;;;3.90;99.90;;;;;;5091851;28;20028;-66
2022/12/07 09:43:35;;;;;;;;;;;4.10;99.90;;;;;;5097197;28;19924;-66
2022/12/07 09:46:01;;;;;;;;;;;4.20;99.90;;;;;;5128631;27;19921;-66
2022/12/07 09:48:35;;;;;;;;;;;4.30;99.90;;;;;;5091182;28;20393;-65
2022/12/07 09:51:01;;;;;;;;;;;4.50;99.90;;;;;;5096051;28;19923;-65
2022/12/07 09:53:28;;;;;;;;;;;4.40;99.90;;;;;;5097643;28;19924;-66
2022/12/07 09:55:53;;;;;;;;;;;4.50;99.90;;;;;;5097355;28;21273;-66
2022/12/07 09:58:21;;;;;;;;;;;4.50;99.90;;;;;;5093519;28;19935;-65
2022/12/07 10:00:47;;;;;;;;;;;4.50;99.90;;;;;;5099842;28;19924;-65
2022/12/07 10:03:12;;;;;;;;;;;4.60;99.90;;;;;;5093765;28;19920;-66
2022/12/07 10:05:41;;;;;;;;;;;4.50;99.90;;;;;;5095968;28;19927;-65
2022/12/07 10:08:08;;;;;;;;;;;4.60;99.90;;;;;;5091792;28;19928;-66
2022/12/07 10:10:34;;;;;;;;;;;4.50;99.90;;;;;;5097064;28;19931;-66
2022/12/07 10:13:10;;;;;;;;;;;4.50;99.90;;;;;;5095568;28;19947;-66
2022/12/07 10:15:39;;;;;;;;;;;4.50;99.90;;;;;;5091350;28;19921;-66
2022/12/07 10:18:16;;;;;;;;;;;4.50;99.90;;;;;;5082181;28;19920;-66
2022/12/07 10:20:41;;;;;;;;;;;4.50;99.90;;;;;;5085954;28;20382;-66
2022/12/07 10:23:13;;;;;;;;;;;4.50;99.90;;;;;;5084818;28;19955;-65
2022/12/07 10:25:40;;;;;;;;;;;4.50;99.90;;;;;;5097948;28;19923;-66
2022/12/07 10:28:08;;;;;;;;;;;4.40;99.90;;;;;;5095248;28;19973;-66
2022/12/07 10:30:56;;;;;;;;;;;4.50;99.90;;;;;;5097695;28;20277;-66
2022/12/07 10:33:34;;;;;;;;;;;4.60;99.90;;;;;;5083311;28;20010;-65
2022/12/07 10:36:00;;;;;;;;;;;4.80;99.90;;;;;;5124595;27;20374;-65
2022/12/07 10:38:27;;;;;;;;;;;5.00;99.90;;;;;;5104053;28;19970;-64
2022/12/07 10:41:03;;;;;;;;;;;5.20;99.90;;;;;;5120010;27;20440;-63
2022/12/07 10:43:28;;;;;;;;;;;5.30;99.90;;;;;;5114613;27;19920;-65
2022/12/07 10:45:57;;;;;;;;;;;5.30;99.90;;;;;;5089753;28;19931;-64
2022/12/07 10:48:31;;;;;;;;;;;5.40;99.90;;;;;;5083657;28;19951;-65
2022/12/07 10:51:21;;;;;;;;;;;5.40;99.90;;;;;;5099108;28;19923;-65
2022/12/07 10:53:50;;;;;;;;;;;5.40;99.90;;;;;;5109766;27;20371;-66
2022/12/07 10:56:42;;;;;;;;;;;5.50;99.90;;;;;;5113700;27;19930;-65
2022/12/07 10:59:26;;;;;;;;;;;5.50;99.90;;;;;;5088699;28;19920;-66
2022/12/07 11:02:00;;;;;;;;;;;5.40;99.90;;;;;;5088310;28;20156;-66
2022/12/07 11:04:54;;;;;;;;;;;5.30;99.90;;;;;;5071513;28;19920;-66
2022/12/07 11:07:34;;;;;;;;;;;5.20;99.90;;;;;;5074391;28;20386;-66
2022/12/07 11:10:18;;;;;;;;;;;5.20;99.90;;;;;;5089571;28;19920;-66
2022/12/07 11:12:51;;;;;;;;;;;5.20;99.90;;;;;;5091439;28;19924;-66
2022/12/07 11:15:16;;;;;;;;;;;5.20;99.90;;;;;;5115022;27;19944;-66
2022/12/07 11:17:52;;;;;;;;;;;5.20;99.90;;;;;;5093669;28;19928;-66
2022/12/07 11:20:29;;;;;;;;;;;5.20;99.90;;;;;;5087517;28;20053;-67
2022/12/07 11:23:09;;;;;;;;;;;5.30;99.90;;;;;;5084800;28;19924;-65
2022/12/07 11:25:40;;;;;;;;;;;5.40;99.90;;;;;;5083602;28;19920;-65
2022/12/07 11:28:09;;;;;;;;;;;5.30;99.90;;;;;;5090329;28;19920;-66
2022/12/07 11:30:53;;;;;;;;;;;5.40;99.90;;;;;;5083908;28;20374;-66
2022/12/07 11:33:21;;;;;;;;;;;5.50;99.90;;;;;;5106102;27;19920;-65
2022/12/07 11:36:06;;;;;;;;;;;5.40;99.90;;;;;;5104154;28;19967;-65
2022/12/07 11:38:50;;;;;;;;;;;5.40;99.90;;;;;;5088816;28;19927;-66
2022/12/07 11:41:20;;;;;;;;;;;5.40;99.90;;;;;;5087627;28;20404;-65
2022/12/07 11:43:58;;;;;;;;;;;5.50;99.90;;;;;;5116122;27;20281;-66
2022/12/07 11:46:27;;;;;;;;;;;5.50;99.90;;;;;;5109437;27;20289;-66
2022/12/07 11:48:55;;;;;;;;;;;5.50;99.90;;;;;;5120693;27;20306;-66
2022/12/07 11:51:22;;;;;;;;;;;5.60;99.90;;;;;;5088426;28;19967;-66
2022/12/07 11:53:48;;;;;;;;;;;5.70;99.90;;;;;;5087676;28;19969;-65
2022/12/07 11:56:15;;;;;;;;;;;5.70;99.90;;;;;;5090501;28;20362;-65
2022/12/07 11:58:47;;;;;;;;;;;5.70;99.90;;;;;;5085696;28;20035;-65
2022/12/07 12:01:27;;;;;;;;;;;5.70;99.90;;;;;;5112733;27;19924;-65
2022/12/07 12:04:09;;;;;;;;;;;5.80;99.90;;;;;;5092375;28;21540;-65
2022/12/07 12:06:35;;;;;;;;;;;5.80;99.90;;;;;;5085483;28;19923;-65
2022/12/07 12:09:00;;;;;;;;;;;6.00;99.90;;;;;;5072457;28;20003;-66
2022/12/07 12:11:52;;;;;;;;;;;6.00;99.90;;;;;;5080965;28;19925;-65
2022/12/07 12:14:36;;;;;;;;;;;6.10;99.90;;;;;;5117795;28;20282;-66
2022/12/07 12:17:20;;;;;;;;;;;6.20;99.90;;;;;;5089461;28;19959;-66
2022/12/07 12:19:52;;;;;;;;;;;6.30;99.90;;;;;;5123621;28;19973;-66
2022/12/07 12:22:20;;;;;;;;;;;6.30;99.90;;;;;;5095231;28;20302;-65
2022/12/07 12:24:50;;;;;;;;;;;6.40;99.90;;;;;;5086407;28;19920;-66
2022/12/07 12:27:30;;;;;;;;;;;6.40;99.90;;;;;;5081597;28;19966;-65
2022/12/07 12:30:01;;;;;;;;;;;6.50;99.90;;;;;;5090981;28;19927;-65
2022/12/07 12:32:29;;;;;;;;;;;6.50;99.90;;;;;;5084842;28;19924;-65
2022/12/07 12:35:01;;;;;;;;;;;6.40;99.90;;;;;;5072677;28;19920;-66
2022/12/07 12:37:32;;;;;;;;;;;6.40;99.90;;;;;;5075156;28;20283;-66
2022/12/07 12:40:16;;;;;;;;;;;6.40;99.90;;;;;;5083988;28;19920;-66
2022/12/07 12:42:46;;;;;;;;;;;6.50;99.90;;;;;;5083226;28;19924;-65
2022/12/07 12:45:25;;;;;;;;;;;6.50;99.90;;;;;;5099699;28;19931;-66
2022/12/07 12:47:55;;;;;;;;;;;6.40;99.90;;;;;;5120153;28;19950;-66
2022/12/07 12:50:21;;;;;;;;;;;6.40;99.90;;;;;;5087585;28;19930;-66
2022/12/07 12:52:56;;;;;;;;;;;6.40;99.90;;;;;;5098856;28;19928;-65
2022/12/07 12:55:25;;;;;;;;;;;6.40;99.90;;;;;;5115637;27;19928;-65
2022/12/07 12:58:09;;;;;;;;;;;6.30;99.90;;;;;;5086850;28;19928;-65
2022/12/07 13:00:35;;;;;;;;;;;6.30;99.90;;;;;;5086869;28;19935;-65
2022/12/07 13:03:00;;;;;;;;;;;6.30;99.90;;;;;;5087515;28;19924;-66
2022/12/07 13:05:27;;;;;;;;;;;6.30;99.90;;;;;;5093292;28;19920;-66
2022/12/07 13:07:58;;;;;;;;;;;6.30;99.90;;;;;;5083533;28;20314;-65
2022/12/07 13:10:34;;;;;;;;;;;6.30;99.90;;;;;;5093623;28;20039;-65
2022/12/07 13:13:22;;;;;;;;;;;6.30;99.90;;;;;;5091447;28;19965;-65
2022/12/07 13:15:48;;;;;;;;;;;6.20;99.90;;;;;;5087767;28;20362;-64
2022/12/07 13:18:32;;;;;;;;;;;6.20;99.90;;;;;;5121219;27;19921;-66
2022/12/07 13:21:01;;;;;;;;;;;6.20;99.90;;;;;;5081679;28;19920;-65
2022/12/07 13:23:30;;;;;;;;;;;6.20;99.90;;;;;;5087147;28;19952;-65
2022/12/07 13:26:01;;;;;;;;;;;6.20;99.90;;;;;;5089833;28;19974;-66
2022/12/07 13:28:33;;;;;;;;;;;6.20;99.90;;;;;;5117593;27;20323;-65
2022/12/07 13:31:03;;;;;;;;;;;6.20;99.90;;;;;;5113378;27;19928;-65
2022/12/07 13:33:29;;;;;;;;;;;6.20;99.90;;;;;;5119740;27;19924;-66
2022/12/07 13:35:56;;;;;;;;;;;6.30;99.90;;;;;;5086891;28;20013;-65
2022/12/07 13:38:21;;;;;;;;;;;6.30;99.90;;;;;;5086539;28;19920;-64
2022/12/07 13:41:06;;;;;;;;;;;6.30;99.90;;;;;;5091250;28;19947;-65
2022/12/07 13:43:42;;;;;;;;;;;6.30;99.90;;;;;;5114200;27;19935;-65
2022/12/07 13:46:08;;;;;;;;;;;6.30;99.90;;;;;;5086363;28;19920;-65
2022/12/07 13:48:44;;;;;;;;;;;6.20;99.90;;;;;;5117652;27;19981;-66
2022/12/07 13:51:17;;;;;;;;;;;6.20;99.90;;;;;;5084425;28;20451;-65
2022/12/07 13:53:50;;;;;;;;;;;6.00;99.90;;;;;;5087885;28;19924;-66
2022/12/07 13:56:16;;;;;;;;;;;6.00;99.90;;;;;;5069563;28;19924;-65
2022/12/07 13:58:41;;;;;;;;;;;5.90;99.90;;;;;;5090347;28;19958;-66
2022/12/07 14:01:07;;;;;;;;;;;5.80;99.90;;;;;;5106285;28;19997;-65
2022/12/07 14:03:34;;;;;;;;;;;5.70;99.90;;;;;;5086657;28;19970;-65
2022/12/07 14:06:20;;;;;;;;;;;5.70;99.90;;;;;;5064011;28;20420;-65
2022/12/07 14:08:46;;;;;;;;;;;5.60;99.90;;;;;;5069135;28;19927;-65
2022/12/07 14:11:16;;;;;;;;;;;5.60;99.90;;;;;;5080642;28;19928;-65
2022/12/07 14:13:45;;;;;;;;;;;5.50;99.90;;;;;;5087873;28;19935;-65
2022/12/07 14:16:28;;;;;;;;;;;5.50;99.90;;;;;;5090994;28;19920;-66
2022/12/07 14:18:55;;;;;;;;;;;5.40;99.90;;;;;;5122471;27;19927;-65
2022/12/07 14:21:23;;;;;;;;;;;5.40;99.90;;;;;;5115702;27;19927;-65
2022/12/07 14:24:07;;;;;;;;;;;5.40;99.90;;;;;;5089123;28;19924;-65
2022/12/07 14:26:33;;;;;;;;;;;5.30;99.90;;;;;;5066418;28;19928;-64
2022/12/07 14:29:17;;;;;;;;;;;5.20;99.90;;;;;;5089329;28;20014;-64
2022/12/07 14:31:43;;;;;;;;;;;5.10;99.90;;;;;;5084757;28;20325;-65
2022/12/07 14:34:11;;;;;;;;;;;5.00;99.90;;;;;;5088908;28;19924;-65
2022/12/07 14:36:37;;;;;;;;;;;4.90;99.90;;;;;;5082084;28;20276;-65
2022/12/07 14:39:02;;;;;;;;;;;4.90;99.90;;;;;;5080235;28;19965;-66
2022/12/07 14:44:12;;;;;;;;;;;4.80;99.90;;;;;;5076140;28;20011;-66
2022/12/07 14:46:38;;;;;;;;;;;4.70;99.90;;;;;;5089110;28;20006;-66